Aérodrome :
LOGIN :

S'inscrire | Disclaimer

   EN    FR    IT 

 










Légende :    VFR   VFR Marginal   IFR   IFR Intensif   IFR Très Intensif
Visi : 
Plafond : 
>= 8 km
>= 3000ft
5 à 8 km
1000 à 3000 ft
1500m à 5 km
500 à 1000 ft
800 à 1500m
200 à 500 ft
< 800m
< 200 ft
Symboles :   Orages  Brouillard  Fortes neiges  Fortes précipitations  Vent > 20 kt
SIGMETs :   Divers  Orages  Givrage  Turbulence  Onde Orograph.  Cendres Volcan.







- Altitude de l'aérodrome : 233 ft
- Code IATA : REU


LERS - Reus Tarragona

DERNIER METAR :
  • 190500Z AUTO 01006KT 9999 BKN019/// OVC026/// 07/05 Q1021

METARs EXPIRÉS :
  • 190430Z AUTO 03006KT 9999 BKN019/// 06/05 Q1021
  • 190400Z AUTO 03005KT 350V060 9999 FEW021/// 05/04 Q1021
  • 190330Z AUTO 03006KT 9999 FEW019/// 06/05 Q1021
  • 190300Z AUTO 04005KT 9999 SCT017/// 05/05 Q1021
  • 190230Z AUTO 04005KT 9000 NCD 04/04 Q1021

TAF TAF LERS
Valide du 19 à 03h jusqu'au 20 à 03h UTC


190200Z 1903/2003 01005KT 9999 SCT020 TX16/1913Z TN04/1907Z
PROB40
TEMPO 1903/1907 4000 BR BKN010
TEMPO 1911/1918 14007KT
Pas de NOTAMs connus pour ce terrain.



MET'MAP, la Météo Aéronautique d'un coup d'oeil ! - Copyright ORBIFLY Décembre 2007 - Disclaimer

ORBIFLY MET'MAP TEAM :

Programmation & Développement : Alexandra Zaïnal
Conception & Développement : Baudouin d'Aumeries
Co-Programmation & Développement : Marc-Olivier Méhu
Soutien technique & logistique : Manuel Goepfert

Contact : metmap@orbifly.com




SOURCES & CREDITS :

   NOAA